Terminal Aerodrome Forecast
Issued by NWS

Home | Current Version | Previous Version | Text Only | Print | Product List | Glossary On
Versions: 1 2 3 4 5 6 7 8 9 10 11 12 13 14 15 16 17 18 19 20 21 22 23 24 25 26 27 28 29 30 31
000
FTUS45 KVEF 251226 AAA
TAFLAS
TAF AMD
KLAS 251226Z 2512/2618 VRB06KT P6SM BKN030 OVC080
     FM251700 16011KT P6SM VCTS FEW030 SCT080CB BKN150
      TEMPO 2520/2524 VRB15G25KT -TSRA BKN080CB
     FM260100 19012KT P6SM VCTS BKN100CB BKN200
     FM260700 VRB06KT P6SM SCT150 BKN200=

USA.gov is the U.S. government's official web portal to all federal, state and local government web resources and services.